sensor_id;sensor_type;location;lat;lon;timestamp;P1;durP1;ratioP1;P2;durP2;ratioP2
2756;SDS011;1386;50.862;6.494;2022-11-15T02:22:27;8.80;;;5.67;;
2756;SDS011;1386;50.862;6.494;2022-11-15T08:10:21;2.60;;;2.10;;
2756;SDS011;1386;50.862;6.494;2022-11-15T08:12:48;2.83;;;2.00;;
2756;SDS011;1386;50.862;6.494;2022-11-15T08:15:22;1.97;;;1.77;;
2756;SDS011;1386;50.862;6.494;2022-11-15T08:17:52;2.27;;;1.90;;
2756;SDS011;1386;50.862;6.494;2022-11-15T08:20:20;2.80;;;2.00;;
2756;SDS011;1386;50.862;6.494;2022-11-15T08:22:48;6.63;;;3.00;;
2756;SDS011;1386;50.862;6.494;2022-11-15T08:25:15;5.30;;;3.67;;
2756;SDS011;1386;50.862;6.494;2022-11-15T08:27:42;3.13;;;2.60;;
2756;SDS011;1386;50.862;6.494;2022-11-15T08:30:09;3.40;;;2.60;;
2756;SDS011;1386;50.862;6.494;2022-11-15T08:32:37;6.30;;;3.67;;
2756;SDS011;1386;50.862;6.494;2022-11-15T08:35:04;7.70;;;5.20;;
2756;SDS011;1386;50.862;6.494;2022-11-15T08:37:32;6.90;;;5.50;;
2756;SDS011;1386;50.862;6.494;2022-11-15T08:40:00;6.50;;;4.70;;
2756;SDS011;1386;50.862;6.494;2022-11-15T08:42:27;5.00;;;3.93;;
2756;SDS011;1386;50.862;6.494;2022-11-15T08:44:54;6.07;;;2.93;;
2756;SDS011;1386;50.862;6.494;2022-11-15T08:47:20;2.57;;;2.37;;
2756;SDS011;1386;50.862;6.494;2022-11-15T08:49:47;4.63;;;3.40;;
2756;SDS011;1386;50.862;6.494;2022-11-15T08:52:14;4.17;;;3.17;;
2756;SDS011;1386;50.862;6.494;2022-11-15T08:54:41;4.53;;;3.40;;
2756;SDS011;1386;50.862;6.494;2022-11-15T08:57:09;4.10;;;2.27;;
2756;SDS011;1386;50.862;6.494;2022-11-15T08:59:36;2.10;;;1.80;;
2756;SDS011;1386;50.862;6.494;2022-11-15T09:02:12;2.37;;;1.53;;
2756;SDS011;1386;50.862;6.494;2022-11-15T09:06:24;3.53;;;1.97;;
2756;SDS011;1386;50.862;6.494;2022-11-15T09:08:24;3.00;;;1.90;;
2756;SDS011;1386;50.862;6.494;2022-11-15T09:10:53;2.30;;;1.83;;
2756;SDS011;1386;50.862;6.494;2022-11-15T09:13:31;2.17;;;1.77;;
2756;SDS011;1386;50.862;6.494;2022-11-15T09:16:12;2.60;;;1.60;;
2756;SDS011;1386;50.862;6.494;2022-11-15T09:18:40;2.67;;;1.50;;
2756;SDS011;1386;50.862;6.494;2022-11-15T09:21:07;4.97;;;1.90;;
2756;SDS011;1386;50.862;6.494;2022-11-15T09:23:35;2.87;;;1.50;;
2756;SDS011;1386;50.862;6.494;2022-11-15T09:26:04;1.47;;;1.37;;
2756;SDS011;1386;50.862;6.494;2022-11-15T09:28:33;2.93;;;1.37;;
2756;SDS011;1386;50.862;6.494;2022-11-15T09:31:02;2.37;;;1.70;;
2756;SDS011;1386;50.862;6.494;2022-11-15T09:33:33;2.60;;;1.53;;
2756;SDS011;1386;50.862;6.494;2022-11-15T09:36:08;3.70;;;1.47;;
2756;SDS011;1386;50.862;6.494;2022-11-15T09:38:42;2.67;;;1.57;;
2756;SDS011;1386;50.862;6.494;2022-11-15T09:41:25;7.83;;;1.70;;
2756;SDS011;1386;50.862;6.494;2022-11-15T09:44:26;1.60;;;1.30;;
2756;SDS011;1386;50.862;6.494;2022-11-15T09:47:10;2.30;;;1.93;;
2756;SDS011;1386;50.862;6.494;2022-11-15T09:50:06;2.80;;;1.50;;
2756;SDS011;1386;50.862;6.494;2022-11-15T09:52:35;3.07;;;1.80;;
2756;SDS011;1386;50.862;6.494;2022-11-15T09:55:07;4.27;;;1.50;;
2756;SDS011;1386;50.862;6.494;2022-11-15T09:57:38;1.87;;;1.60;;
2756;SDS011;1386;50.862;6.494;2022-11-15T10:00:12;2.10;;;1.13;;
2756;SDS011;1386;50.862;6.494;2022-11-15T10:02:46;2.27;;;1.30;;
2756;SDS011;1386;50.862;6.494;2022-11-15T10:05:25;3.40;;;1.30;;
2756;SDS011;1386;50.862;6.494;2022-11-15T10:07:55;2.90;;;1.43;;
2756;SDS011;1386;50.862;6.494;2022-11-15T10:10:29;1.30;;;1.10;;
2756;SDS011;1386;50.862;6.494;2022-11-15T10:13:00;2.30;;;1.40;;
2756;SDS011;1386;50.862;6.494;2022-11-15T10:15:29;5.13;;;1.83;;
2756;SDS011;1386;50.862;6.494;2022-11-15T10:18:08;1.77;;;1.20;;
2756;SDS011;1386;50.862;6.494;2022-11-15T10:20:48;2.17;;;1.30;;
2756;SDS011;1386;50.862;6.494;2022-11-15T10:23:17;2.00;;;1.33;;
2756;SDS011;1386;50.862;6.494;2022-11-15T10:25:46;5.10;;;1.30;;
2756;SDS011;1386;50.862;6.494;2022-11-15T10:28:17;3.50;;;1.17;;
2756;SDS011;1386;50.862;6.494;2022-11-15T10:30:51;3.73;;;1.60;;
2756;SDS011;1386;50.862;6.494;2022-11-15T10:33:24;2.50;;;1.57;;
2756;SDS011;1386;50.862;6.494;2022-11-15T10:38:54;1.63;;;1.40;;
2756;SDS011;1386;50.862;6.494;2022-11-15T10:41:29;2.87;;;2.00;;
2756;SDS011;1386;50.862;6.494;2022-11-15T10:46:48;2.93;;;1.90;;
2756;SDS011;1386;50.862;6.494;2022-11-15T10:49:29;2.97;;;1.67;;
2756;SDS011;1386;50.862;6.494;2022-11-15T10:52:00;2.73;;;1.40;;
2756;SDS011;1386;50.862;6.494;2022-11-15T10:54:34;1.93;;;1.20;;
2756;SDS011;1386;50.862;6.494;2022-11-15T10:57:05;5.50;;;1.40;;
2756;SDS011;1386;50.862;6.494;2022-11-15T10:59:35;3.37;;;1.47;;
2756;SDS011;1386;50.862;6.494;2022-11-15T11:04:55;6.30;;;2.07;;
2756;SDS011;1386;50.862;6.494;2022-11-15T11:07:24;5.60;;;1.30;;
2756;SDS011;1386;50.862;6.494;2022-11-15T11:10:17;3.37;;;1.20;;
2756;SDS011;1386;50.862;6.494;2022-11-15T11:12:51;2.63;;;1.20;;
2756;SDS011;1386;50.862;6.494;2022-11-15T11:15:43;1.57;;;1.00;;
2756;SDS011;1386;50.862;6.494;2022-11-15T11:40:10;3.33;;;1.13;;
2756;SDS011;1386;50.862;6.494;2022-11-15T11:42:46;1.73;;;1.10;;
2756;SDS011;1386;50.862;6.494;2022-11-15T11:45:24;4.70;;;1.67;;
2756;SDS011;1386;50.862;6.494;2022-11-15T11:48:05;1.63;;;1.00;;
2756;SDS011;1386;50.862;6.494;2022-11-15T11:50:38;3.83;;;1.10;;
2756;SDS011;1386;50.862;6.494;2022-11-15T11:53:11;2.23;;;0.90;;
2756;SDS011;1386;50.862;6.494;2022-11-15T11:55:42;2.10;;;0.90;;
2756;SDS011;1386;50.862;6.494;2022-11-15T11:58:13;2.23;;;1.00;;
2756;SDS011;1386;50.862;6.494;2022-11-15T12:00:45;3.07;;;1.20;;
2756;SDS011;1386;50.862;6.494;2022-11-15T12:03:18;2.33;;;1.20;;
2756;SDS011;1386;50.862;6.494;2022-11-15T12:05:51;2.80;;;1.43;;
2756;SDS011;1386;50.862;6.494;2022-11-15T12:08:31;2.70;;;1.63;;
2756;SDS011;1386;50.862;6.494;2022-11-15T12:11:09;1.97;;;1.00;;
2756;SDS011;1386;50.862;6.494;2022-11-15T12:13:40;6.00;;;1.83;;
2756;SDS011;1386;50.862;6.494;2022-11-15T12:16:10;4.97;;;1.40;;
2756;SDS011;1386;50.862;6.494;2022-11-15T12:18:42;3.03;;;1.50;;
2756;SDS011;1386;50.862;6.494;2022-11-15T12:21:13;4.80;;;1.20;;
2756;SDS011;1386;50.862;6.494;2022-11-15T12:23:48;4.50;;;1.37;;
2756;SDS011;1386;50.862;6.494;2022-11-15T12:26:20;2.00;;;1.73;;
2756;SDS011;1386;50.862;6.494;2022-11-15T12:28:51;3.53;;;1.13;;
2756;SDS011;1386;50.862;6.494;2022-11-15T12:31:22;4.00;;;1.30;;
2756;SDS011;1386;50.862;6.494;2022-11-15T12:33:54;2.17;;;1.27;;
2756;SDS011;1386;50.862;6.494;2022-11-15T12:36:33;1.53;;;1.10;;
2756;SDS011;1386;50.862;6.494;2022-11-15T12:39:12;2.63;;;1.90;;
2756;SDS011;1386;50.862;6.494;2022-11-15T12:41:45;3.27;;;1.30;;
2756;SDS011;1386;50.862;6.494;2022-11-15T12:45:22;4.00;;;1.30;;
2756;SDS011;1386;50.862;6.494;2022-11-15T12:57:36;2.13;;;1.13;;
2756;SDS011;1386;50.862;6.494;2022-11-15T13:03:25;2.50;;;1.10;;
2756;SDS011;1386;50.862;6.494;2022-11-15T13:06:08;2.63;;;1.43;;
2756;SDS011;1386;50.862;6.494;2022-11-15T13:08:56;4.20;;;1.47;;
2756;SDS011;1386;50.862;6.494;2022-11-15T13:11:45;2.47;;;1.87;;
2756;SDS011;1386;50.862;6.494;2022-11-15T13:27:43;5.20;;;2.30;;
2756;SDS011;1386;50.862;6.494;2022-11-15T13:30:12;3.33;;;2.10;;
2756;SDS011;1386;50.862;6.494;2022-11-15T13:32:57;3.90;;;1.53;;
2756;SDS011;1386;50.862;6.494;2022-11-15T20:14:11;5.20;;;3.60;;
2756;SDS011;1386;50.862;6.494;2022-11-15T20:16:38;4.27;;;3.10;;
2756;SDS011;1386;50.862;6.494;2022-11-15T20:19:05;4.73;;;3.63;;
2756;SDS011;1386;50.862;6.494;2022-11-15T20:21:33;3.37;;;3.07;;
2756;SDS011;1386;50.862;6.494;2022-11-15T20:24:00;3.20;;;2.87;;
2756;SDS011;1386;50.862;6.494;2022-11-15T20:26:27;5.57;;;3.93;;
2756;SDS011;1386;50.862;6.494;2022-11-15T20:28:56;4.57;;;3.60;;
2756;SDS011;1386;50.862;6.494;2022-11-15T20:31:27;4.57;;;3.00;;
2756;SDS011;1386;50.862;6.494;2022-11-15T20:33:54;6.50;;;3.67;;
2756;SDS011;1386;50.862;6.494;2022-11-15T20:36:21;4.73;;;3.63;;
2756;SDS011;1386;50.862;6.494;2022-11-15T20:38:49;5.03;;;3.10;;
2756;SDS011;1386;50.862;6.494;2022-11-15T20:41:16;3.97;;;3.57;;
2756;SDS011;1386;50.862;6.494;2022-11-15T20:43:49;4.20;;;3.60;;
2756;SDS011;1386;50.862;6.494;2022-11-15T20:46:16;3.50;;;3.20;;
2756;SDS011;1386;50.862;6.494;2022-11-15T20:48:48;4.63;;;3.97;;
2756;SDS011;1386;50.862;6.494;2022-11-15T20:51:15;4.23;;;3.83;;
2756;SDS011;1386;50.862;6.494;2022-11-15T20:54:15;6.27;;;4.00;;
2756;SDS011;1386;50.862;6.494;2022-11-15T20:56:43;4.53;;;3.90;;
2756;SDS011;1386;50.862;6.494;2022-11-15T20:59:13;5.80;;;3.60;;
2756;SDS011;1386;50.862;6.494;2022-11-15T21:04:54;4.60;;;4.17;;
2756;SDS011;1386;50.862;6.494;2022-11-15T21:07:22;5.23;;;4.37;;
2756;SDS011;1386;50.862;6.494;2022-11-15T21:09:52;6.03;;;4.30;;
2756;SDS011;1386;50.862;6.494;2022-11-15T21:12:46;4.47;;;4.07;;
2756;SDS011;1386;50.862;6.494;2022-11-15T21:18:10;5.30;;;4.00;;
2756;SDS011;1386;50.862;6.494;2022-11-15T21:20:44;4.90;;;4.50;;
2756;SDS011;1386;50.862;6.494;2022-11-15T21:51:10;7.13;;;5.07;;
2756;SDS011;1386;50.862;6.494;2022-11-15T21:53:40;6.73;;;4.50;;
2756;SDS011;1386;50.862;6.494;2022-11-15T21:56:20;8.60;;;5.20;;
2756;SDS011;1386;50.862;6.494;2022-11-15T21:58:56;5.83;;;5.00;;
2756;SDS011;1386;50.862;6.494;2022-11-15T22:01:24;5.63;;;5.03;;
2756;SDS011;1386;50.862;6.494;2022-11-15T22:04:14;11.33;;;5.77;;
2756;SDS011;1386;50.862;6.494;2022-11-15T22:06:42;6.23;;;5.63;;
2756;SDS011;1386;50.862;6.494;2022-11-15T22:09:09;7.80;;;5.50;;
2756;SDS011;1386;50.862;6.494;2022-11-15T22:11:38;5.80;;;5.20;;
2756;SDS011;1386;50.862;6.494;2022-11-15T22:14:13;6.13;;;5.53;;
2756;SDS011;1386;50.862;6.494;2022-11-15T22:16:44;6.30;;;5.70;;
2756;SDS011;1386;50.862;6.494;2022-11-15T22:19:11;6.17;;;5.57;;
2756;SDS011;1386;50.862;6.494;2022-11-15T22:21:48;6.23;;;5.30;;
2756;SDS011;1386;50.862;6.494;2022-11-15T22:24:15;7.60;;;5.80;;
2756;SDS011;1386;50.862;6.494;2022-11-15T22:26:51;7.43;;;5.97;;
2756;SDS011;1386;50.862;6.494;2022-11-15T22:29:26;6.47;;;5.33;;
2756;SDS011;1386;50.862;6.494;2022-11-15T22:32:11;5.40;;;4.87;;
2756;SDS011;1386;50.862;6.494;2022-11-15T22:34:42;6.50;;;5.30;;
2756;SDS011;1386;50.862;6.494;2022-11-15T22:37:15;7.63;;;5.50;;
2756;SDS011;1386;50.862;6.494;2022-11-15T22:39:54;7.23;;;5.50;;
2756;SDS011;1386;50.862;6.494;2022-11-15T22:42:22;8.07;;;5.27;;
2756;SDS011;1386;50.862;6.494;2022-11-15T22:45:07;7.80;;;5.77;;
2756;SDS011;1386;50.862;6.494;2022-11-15T22:48:06;7.13;;;6.03;;
2756;SDS011;1386;50.862;6.494;2022-11-15T22:50:50;6.03;;;5.43;;
2756;SDS011;1386;50.862;6.494;2022-11-15T22:53:24;5.10;;;4.60;;
2756;SDS011;1386;50.862;6.494;2022-11-15T22:55:53;8.10;;;6.20;;
2756;SDS011;1386;50.862;6.494;2022-11-15T22:58:21;7.43;;;6.43;;
2756;SDS011;1386;50.862;6.494;2022-11-15T23:00:55;8.90;;;6.10;;
2756;SDS011;1386;50.862;6.494;2022-11-15T23:03:23;11.40;;;6.23;;
2756;SDS011;1386;50.862;6.494;2022-11-15T23:05:59;7.67;;;6.07;;
2756;SDS011;1386;50.862;6.494;2022-11-15T23:08:37;5.97;;;5.33;;
2756;SDS011;1386;50.862;6.494;2022-11-15T23:11:10;9.47;;;6.00;;
2756;SDS011;1386;50.862;6.494;2022-11-15T23:14:01;6.67;;;5.93;;
2756;SDS011;1386;50.862;6.494;2022-11-15T23:16:37;13.30;;;6.00;;
2756;SDS011;1386;50.862;6.494;2022-11-15T23:19:05;6.93;;;5.70;;
2756;SDS011;1386;50.862;6.494;2022-11-15T23:21:36;5.93;;;4.70;;
2756;SDS011;1386;50.862;6.494;2022-11-15T23:24:27;8.27;;;5.43;;
2756;SDS011;1386;50.862;6.494;2022-11-15T23:27:06;6.43;;;5.43;;
2756;SDS011;1386;50.862;6.494;2022-11-15T23:29:33;6.33;;;5.37;;
2756;SDS011;1386;50.862;6.494;2022-11-15T23:32:22;6.80;;;6.20;;
2756;SDS011;1386;50.862;6.494;2022-11-15T23:35:07;6.07;;;5.57;;
2756;SDS011;1386;50.862;6.494;2022-11-15T23:37:37;6.70;;;6.10;;
2756;SDS011;1386;50.862;6.494;2022-11-15T23:40:06;8.30;;;6.40;;
2756;SDS011;1386;50.862;6.494;2022-11-15T23:42:34;7.00;;;6.00;;
2756;SDS011;1386;50.862;6.494;2022-11-15T23:45:05;6.50;;;5.90;;
2756;SDS011;1386;50.862;6.494;2022-11-15T23:47:33;8.67;;;6.87;;
2756;SDS011;1386;50.862;6.494;2022-11-15T23:50:06;9.90;;;6.10;;
2756;SDS011;1386;50.862;6.494;2022-11-15T23:52:37;8.57;;;5.67;;
2756;SDS011;1386;50.862;6.494;2022-11-15T23:55:14;6.77;;;6.07;;
2756;SDS011;1386;50.862;6.494;2022-11-15T23:57:49;6.40;;;5.70;;
